createdAt,value
2023-04-16T00:07:34.249Z,968.75
2023-04-16T00:17:34.460Z,968.92
2023-04-16T00:27:34.565Z,968.82
2023-04-16T00:37:34.859Z,968.81
2023-04-16T00:47:35.015Z,968.93
2023-04-16T00:57:35.455Z,968.95
2023-04-16T01:07:35.352Z,968.82
2023-04-16T01:17:35.448Z,968.86
2023-04-16T01:27:35.548Z,969.05
2023-04-16T01:37:35.741Z,969.02
2023-04-16T01:47:35.987Z,969.09
2023-04-16T01:57:36.143Z,969.07
2023-04-16T02:07:36.362Z,969.09
2023-04-16T02:17:36.576Z,969.10
2023-04-16T02:27:36.721Z,969.07
2023-04-16T02:37:36.906Z,969.08
2023-04-16T02:47:37.094Z,969.09
2023-04-16T02:57:37.190Z,969.17
2023-04-16T03:07:37.434Z,969.21
2023-04-16T03:17:37.720Z,969.25
2023-04-16T03:27:37.829Z,969.29
2023-04-16T03:37:38.275Z,969.33
2023-04-16T03:47:38.212Z,969.32
2023-04-16T03:57:38.325Z,969.48
2023-04-16T04:07:38.537Z,969.41
2023-04-16T04:17:38.880Z,969.49
2023-04-16T04:27:38.896Z,969.51
2023-04-16T04:37:39.019Z,969.67
2023-04-16T04:47:39.258Z,969.73
2023-04-16T04:57:39.463Z,969.75
2023-04-16T05:07:39.723Z,969.95
2023-04-16T05:17:39.944Z,970.02
2023-04-16T05:27:40.047Z,970.07
2023-04-16T05:37:40.404Z,970.23
2023-04-16T05:47:40.406Z,970.31
2023-04-16T05:57:40.588Z,970.42
2023-04-16T06:07:40.847Z,970.49
2023-04-16T06:17:41.144Z,970.50
2023-04-16T06:27:41.492Z,970.53
2023-04-16T06:37:41.349Z,970.67
2023-04-16T06:47:41.575Z,970.65
2023-04-16T06:57:41.652Z,970.74
2023-04-16T07:07:41.856Z,970.76
2023-04-16T07:17:42.083Z,970.82
2023-04-16T07:27:42.212Z,970.93
2023-04-16T07:37:42.391Z,970.97
2023-04-16T07:47:42.669Z,971.10
2023-04-16T07:57:42.761Z,971.18
2023-04-16T08:07:43.041Z,971.25
2023-04-16T08:17:43.229Z,971.37
2023-04-16T08:27:43.271Z,971.44
2023-04-16T08:37:43.450Z,971.61
2023-04-16T08:47:43.701Z,971.68
2023-04-16T08:57:43.807Z,971.68
2023-04-16T09:07:44.044Z,971.74
2023-04-16T09:17:44.335Z,971.82
2023-04-16T09:27:44.361Z,971.89
2023-04-16T09:37:44.555Z,971.97
2023-04-16T09:47:44.862Z,972.05
2023-04-16T09:57:44.934Z,972.17
2023-04-16T10:07:45.177Z,972.18
2023-04-16T10:17:45.486Z,972.19
2023-04-16T10:27:45.563Z,972.30
2023-04-16T10:37:45.742Z,972.30
2023-04-16T10:47:45.996Z,972.37
2023-04-16T10:57:46.071Z,972.35
2023-04-16T11:07:46.327Z,972.34
2023-04-16T11:17:46.534Z,972.38
2023-04-16T11:27:46.527Z,972.46
2023-04-16T11:37:46.707Z,972.48
2023-04-16T11:47:47.002Z,972.53
2023-04-16T11:57:47.099Z,972.54
2023-04-16T12:07:47.559Z,972.56
2023-04-16T12:17:47.542Z,972.63
2023-04-16T12:27:48.599Z,972.66
2023-04-16T12:37:48.080Z,972.70
2023-04-16T12:47:48.001Z,972.71
2023-04-16T12:57:48.331Z,972.69
2023-04-16T13:07:49.546Z,972.72
2023-04-16T13:17:48.605Z,972.63
2023-04-16T13:27:48.878Z,972.68
2023-04-16T13:37:48.850Z,972.72
2023-04-16T13:47:49.105Z,972.78
2023-04-16T13:57:49.183Z,972.74
2023-04-16T14:07:49.694Z,972.70
2023-04-16T14:17:49.639Z,972.68
2023-04-16T14:27:49.645Z,972.69
2023-04-16T14:37:49.747Z,972.74
2023-04-16T14:47:50.201Z,972.77
2023-04-16T14:57:50.037Z,972.78
2023-04-16T15:07:50.238Z,972.78
2023-04-16T15:17:50.516Z,972.74
2023-04-16T15:27:50.665Z,972.79
2023-04-16T15:37:50.933Z,972.81
2023-04-16T15:47:50.971Z,972.84
2023-04-16T15:57:51.186Z,972.90
2023-04-16T16:07:51.298Z,972.94
2023-04-16T16:17:51.560Z,972.94
2023-04-16T16:27:51.708Z,973.06
2023-04-16T16:37:51.988Z,973.07
2023-04-16T16:47:52.158Z,973.12
2023-04-16T16:57:52.541Z,973.06
2023-04-16T17:07:52.507Z,973.14
2023-04-16T17:17:52.818Z,973.12
2023-04-16T17:27:52.789Z,973.14
2023-04-16T17:37:53.046Z,973.21
2023-04-16T17:47:53.218Z,973.31
2023-04-16T17:57:53.324Z,973.33
2023-04-16T18:07:53.567Z,973.32
2023-04-16T18:17:53.852Z,973.36
2023-04-16T18:27:54.020Z,973.51
2023-04-16T18:37:54.086Z,973.55
2023-04-16T18:47:54.329Z,973.72
2023-04-16T18:57:54.427Z,973.65
2023-04-16T19:07:54.653Z,973.77
2023-04-16T19:17:54.873Z,973.82
2023-04-16T19:27:55.103Z,973.89
2023-04-16T19:37:55.458Z,973.95
2023-04-16T19:47:55.514Z,973.87
2023-04-16T19:57:55.715Z,973.97
2023-04-16T20:07:55.584Z,973.95
2023-04-16T20:17:55.810Z,974.11
2023-04-16T20:27:55.962Z,974.08
2023-04-16T20:37:56.140Z,973.95
2023-04-16T20:47:56.543Z,974.03
2023-04-16T20:57:56.530Z,973.92
2023-04-16T21:07:56.746Z,973.86
2023-04-16T21:17:57.026Z,973.89
2023-04-16T21:27:57.129Z,973.97
2023-04-16T21:37:57.295Z,973.89
2023-04-16T21:47:57.586Z,973.92
2023-04-16T21:57:57.824Z,973.89
2023-04-16T22:07:57.826Z,973.91
2023-04-16T22:17:58.043Z,973.84
2023-04-16T22:27:58.170Z,973.80
2023-04-16T22:37:58.339Z,973.73
2023-04-16T22:47:58.661Z,973.70
2023-04-16T22:57:58.661Z,973.71
2023-04-16T23:07:58.904Z,973.74
2023-04-16T23:17:59.166Z,973.79
2023-04-16T23:27:59.390Z,973.77
2023-04-16T23:37:59.671Z,973.72
2023-04-16T23:47:59.758Z,973.68
2023-04-16T23:57:59.780Z,973.64
